Time;durP1;ratioP1;P1;durP2;ratioP2;P2;SDS_P1;SDS_P2;PMS_P1;PMS_P2;Temp;Humidity;BMP_temperature;BMP_pressure;BME280_temperature;BME280_humidity;BME280_pressure;Samples;Min_cycle;Max_cycle;Signal;HPM_P1;HPM_P2
2024/04/23 00:02:22;;;;;;;5.37;4.87;;;2.70;1.00;;;;;;5527673;25;20224;-44
2024/04/23 00:04:47;;;;;;;6.40;5.63;;;2.70;1.00;;;;;;5527573;25;20271;-45
2024/04/23 00:07:13;;;;;;;8.20;6.57;;;2.70;1.00;;;;;;5530778;25;20223;-44
2024/04/23 00:09:39;;;;;;;5.03;4.53;;;2.60;1.00;;;;;;5531153;25;20232;-44
2024/04/23 00:12:04;;;;;;;6.40;5.67;;;2.50;1.00;;;;;;5498215;25;20517;-45
2024/04/23 00:14:30;;;;;;;5.83;5.23;;;2.50;1.00;;;;;;5528907;25;20228;-44
2024/04/23 00:17:00;;;;;;;7.73;5.90;;;2.40;1.00;;;;;;5530083;25;20220;-45
2024/04/23 00:19:25;;;;;;;6.60;6.00;;;2.40;1.00;;;;;;5529395;25;20229;-45
2024/04/23 00:21:51;;;;;;;7.50;6.43;;;2.40;1.00;;;;;;5530748;25;20534;-44
2024/04/23 00:24:17;;;;;;;7.80;6.10;;;2.40;1.00;;;;;;5529733;25;20273;-43
2024/04/23 00:26:55;;;;;;;5.80;5.03;;;2.40;9.60;;;;;;5497817;26;20326;-44
2024/04/23 00:29:21;;;;;;;7.80;6.40;;;2.30;13.00;;;;;;5531002;26;20909;-44
2024/04/23 00:31:47;;;;;;;7.07;5.57;;;2.30;34.70;;;;;;5530991;26;20497;-45
2024/04/23 00:34:12;;;;;;;9.93;6.50;;;2.30;44.40;;;;;;5531408;25;20216;-45
2024/04/23 00:36:38;;;;;;;10.30;5.97;;;2.30;18.20;;;;;;5531057;25;20452;-44
2024/04/23 00:39:04;;;;;;;5.93;5.33;;;2.30;12.70;;;;;;5498599;26;20277;-44
2024/04/23 00:41:29;;;;;;;6.43;5.60;;;2.30;5.40;;;;;;5531360;25;20231;-45
2024/04/23 00:43:56;;;;;;;6.63;6.00;;;2.20;12.90;;;;;;5531292;25;20515;-45
2024/04/23 00:46:26;;;;;;;7.70;6.90;;;2.20;36.00;;;;;;5467812;26;20640;-44
2024/04/23 00:48:52;;;;;;;7.67;6.10;;;2.20;47.60;;;;;;5529274;25;20452;-44
2024/04/23 00:51:18;;;;;;;6.53;5.90;;;2.20;46.70;;;;;;5498265;26;20498;-44
2024/04/23 00:53:44;;;;;;;6.60;5.90;;;2.10;26.10;;;;;;5497767;25;20258;-44
2024/04/23 00:56:11;;;;;;;7.43;6.10;;;2.10;64.30;;;;;;5530799;25;20452;-45
2024/04/23 00:58:37;;;;;;;7.53;6.83;;;2.10;86.70;;;;;;5531042;25;20428;-45
2024/04/23 01:01:04;;;;;;;8.13;7.30;;;2.00;99.90;;;;;;5498415;26;20455;-45
2024/04/23 01:03:30;;;;;;;8.77;7.00;;;2.00;99.90;;;;;;5530137;25;20460;-45
2024/04/23 01:05:56;;;;;;;7.80;6.63;;;2.00;99.90;;;;;;5530945;25;20508;-45
2024/04/23 01:08:21;;;;;;;7.57;6.77;;;1.90;99.90;;;;;;5530470;25;20227;-45
2024/04/23 01:10:47;;;;;;;9.50;6.80;;;1.90;99.90;;;;;;5529144;25;20249;-44
2024/04/23 01:13:13;;;;;;;7.40;6.20;;;1.80;99.90;;;;;;5530677;25;20216;-45
2024/04/23 01:15:39;;;;;;;7.43;6.73;;;1.90;99.90;;;;;;5530256;25;20652;-45
2024/04/23 01:18:05;;;;;;;8.07;7.10;;;1.80;99.90;;;;;;5529419;26;20243;-44
2024/04/23 01:20:32;;;;;;;8.37;7.10;;;1.90;99.90;;;;;;5530621;25;20464;-45
2024/04/23 01:23:03;;;;;;;8.37;6.60;;;1.90;99.90;;;;;;5497724;25;20445;-44
2024/04/23 01:25:29;;;;;;;7.47;6.60;;;1.80;99.90;;;;;;5530586;25;20432;-45
2024/04/23 01:27:55;;;;;;;7.10;6.40;;;1.80;99.90;;;;;;5496438;26;20445;-45
2024/04/23 01:30:21;;;;;;;7.73;6.90;;;1.80;99.90;;;;;;5496521;25;20452;-45
2024/04/23 01:32:48;;;;;;;7.93;6.77;;;1.80;99.90;;;;;;5528252;25;20223;-44
2024/04/23 01:35:15;;;;;;;9.53;7.10;;;1.80;99.90;;;;;;5497602;26;20494;-45
2024/04/23 01:37:43;;;;;;;7.83;6.70;;;1.80;99.90;;;;;;5530756;25;20445;-45
2024/04/23 01:40:09;;;;;;;7.93;6.93;;;1.80;99.90;;;;;;5497770;25;20440;-45
2024/04/23 01:42:36;;;;;;;8.37;6.90;;;1.80;99.90;;;;;;5530367;25;20755;-45
2024/04/23 01:45:02;;;;;;;8.27;7.07;;;1.80;99.90;;;;;;5496243;26;20505;-44
2024/04/23 01:47:27;;;;;;;9.00;7.73;;;1.70;99.90;;;;;;5530233;25;20460;-45
2024/04/23 01:49:53;;;;;;;8.00;7.17;;;1.70;99.90;;;;;;5530103;25;20436;-45
2024/04/23 01:52:19;;;;;;;10.30;7.10;;;1.60;99.90;;;;;;5530447;25;20208;-45
2024/04/23 01:54:45;;;;;;;8.80;7.40;;;1.60;99.90;;;;;;5528052;25;20261;-45
2024/04/23 01:57:11;;;;;;;7.90;7.10;;;1.50;99.90;;;;;;5529169;25;20278;-45
2024/04/23 01:59:40;;;;;;;8.63;7.40;;;1.50;99.90;;;;;;5528452;25;20494;-45
2024/04/23 02:02:06;;;;;;;8.13;7.23;;;1.60;99.90;;;;;;5495566;26;20508;-45
2024/04/23 02:04:33;;;;;;;9.27;8.30;;;1.60;99.90;;;;;;5529661;25;20549;-45
2024/04/23 02:06:58;;;;;;;8.73;7.23;;;1.60;99.90;;;;;;5529040;25;20258;-45
2024/04/23 02:09:24;;;;;;;8.10;7.30;;;1.60;99.90;;;;;;5529388;25;20445;-45
2024/04/23 02:11:55;;;;;;;7.67;6.87;;;1.60;99.90;;;;;;5497124;25;20702;-45
2024/04/23 02:14:20;;;;;;;8.67;7.33;;;1.60;99.90;;;;;;5530103;25;20444;-45
2024/04/23 02:16:46;;;;;;;7.23;6.30;;;1.60;99.90;;;;;;5529191;25;20930;-45
2024/04/23 02:19:12;;;;;;;7.10;6.40;;;1.60;99.90;;;;;;5496071;25;20232;-45
2024/04/23 02:21:37;;;;;;;8.60;7.03;;;1.70;99.90;;;;;;5497287;26;20232;-45
2024/04/23 02:24:03;;;;;;;7.77;6.97;;;1.70;99.90;;;;;;5528924;25;20220;-45
2024/04/23 02:26:29;;;;;;;8.43;7.53;;;1.70;99.90;;;;;;5528213;25;20211;-45
2024/04/23 02:28:54;;;;;;;9.47;8.53;;;1.70;99.90;;;;;;5527218;25;20618;-45
2024/04/23 02:31:20;;;;;;;10.50;8.80;;;1.70;99.90;;;;;;5529156;25;20227;-45
2024/04/23 02:33:45;;;;;;;9.73;8.53;;;1.60;99.90;;;;;;5529465;25;20269;-45
2024/04/23 02:36:11;;;;;;;10.40;8.73;;;1.70;99.90;;;;;;5528375;25;20227;-45
2024/04/23 02:38:37;;;;;;;9.90;8.53;;;1.70;99.90;;;;;;5528400;26;20265;-45
2024/04/23 02:41:02;;;;;;;10.80;9.40;;;1.70;99.90;;;;;;5528124;26;20462;-45
2024/04/23 02:43:28;;;;;;;9.33;8.37;;;1.60;99.90;;;;;;5528247;26;20231;-45
2024/04/23 02:45:53;;;;;;;10.80;9.50;;;1.60;99.90;;;;;;5529123;25;20278;-45
2024/04/23 02:48:19;;;;;;;10.10;7.93;;;1.60;99.90;;;;;;5529216;25;20227;-45
2024/04/23 02:50:44;;;;;;;10.60;8.43;;;1.60;99.90;;;;;;5527766;25;20219;-45
2024/04/23 02:53:10;;;;;;;9.40;8.00;;;1.60;99.90;;;;;;5528762;25;20216;-45
2024/04/23 02:55:36;;;;;;;10.50;8.37;;;1.50;99.90;;;;;;5528728;25;20224;-45
2024/04/23 02:58:01;;;;;;;10.43;8.77;;;1.50;99.90;;;;;;5528808;25;20471;-45
2024/04/23 03:00:27;;;;;;;9.90;8.23;;;1.50;99.90;;;;;;5528261;25;20508;-45
2024/04/23 03:02:52;;;;;;;9.73;8.30;;;1.50;99.90;;;;;;5528637;26;20487;-45
2024/04/23 03:05:18;;;;;;;8.37;7.57;;;1.40;99.90;;;;;;5528075;26;20231;-45
2024/04/23 03:07:43;;;;;;;9.63;8.63;;;1.40;99.90;;;;;;5526767;26;20391;-45
2024/04/23 03:10:09;;;;;;;9.00;8.10;;;1.40;99.90;;;;;;5524333;26;20228;-45
2024/04/23 03:12:35;;;;;;;8.90;8.00;;;1.40;99.90;;;;;;5523780;25;20291;-45
2024/04/23 03:15:00;;;;;;;10.00;8.43;;;1.40;99.90;;;;;;5524202;25;20273;-45
2024/04/23 03:17:26;;;;;;;9.13;8.10;;;1.40;99.90;;;;;;5525266;25;20633;-45
2024/04/23 03:19:51;;;;;;;10.40;8.70;;;1.40;99.90;;;;;;5525494;26;20231;-45
2024/04/23 03:22:18;;;;;;;11.67;9.10;;;1.40;99.90;;;;;;5527012;25;20323;-45
2024/04/23 03:24:43;;;;;;;9.40;8.40;;;1.40;99.90;;;;;;5528232;25;20227;-45
2024/04/23 03:27:09;;;;;;;11.70;9.90;;;1.30;99.90;;;;;;5527432;25;20690;-45
2024/04/23 03:29:34;;;;;;;12.90;11.60;;;1.30;99.90;;;;;;5528081;25;20224;-46
2024/04/23 03:32:01;;;;;;;11.47;10.30;;;1.20;99.90;;;;;;5527147;25;20626;-45
2024/04/23 03:34:27;;;;;;;12.20;11.00;;;1.10;99.90;;;;;;5527760;26;20223;-45
2024/04/23 03:36:53;;;;;;;13.40;11.60;;;1.10;99.90;;;;;;5526257;25;20456;-45
2024/04/23 03:39:18;;;;;;;10.87;9.13;;;1.10;99.90;;;;;;5526069;26;20454;-45
2024/04/23 03:42:00;;;;;;;10.17;9.10;;;1.00;99.90;;;;;;5527875;25;20219;-44
2024/04/23 03:44:27;;;;;;;11.63;9.33;;;1.00;99.90;;;;;;5527681;25;20514;-45
2024/04/23 03:46:53;;;;;;;10.23;9.10;;;1.00;99.90;;;;;;5528193;25;20449;-44
2024/04/23 03:49:18;;;;;;;10.30;9.23;;;1.10;99.90;;;;;;5528163;26;20460;-45
2024/04/23 03:51:44;;;;;;;11.13;9.23;;;1.10;99.90;;;;;;5527267;25;20497;-45
2024/04/23 03:54:10;;;;;;;10.40;9.40;;;1.10;99.90;;;;;;5526255;25;20220;-45
2024/04/23 03:56:35;;;;;;;10.03;8.10;;;1.00;99.90;;;;;;5524134;25;20482;-45
2024/04/23 03:59:01;;;;;;;12.00;9.97;;;1.10;99.90;;;;;;5528622;25;20332;-45
2024/04/23 04:01:26;;;;;;;9.87;8.87;;;1.10;99.90;;;;;;5528088;25;20614;-45
2024/04/23 04:06:37;;;;;;;11.60;9.00;;;1.00;99.90;;;;;;5531235;25;20701;-45
2024/04/23 04:09:02;;;;;;;12.57;9.83;;;0.90;99.90;;;;;;5528891;26;20460;-45
2024/04/23 04:11:32;;;;;;;9.77;8.20;;;0.90;99.90;;;;;;5529932;26;20587;-45
2024/04/23 04:14:01;;;;;;;9.93;8.90;;;0.90;99.90;;;;;;5531054;25;20277;-45
2024/04/23 04:16:28;;;;;;;10.50;8.67;;;0.80;99.90;;;;;;5528458;25;20866;-45
2024/04/23 04:18:54;;;;;;;10.33;8.73;;;0.80;99.90;;;;;;5530899;25;20920;-45
2024/04/23 04:21:20;;;;;;;10.33;9.13;;;0.80;99.90;;;;;;5530441;25;20532;-45
2024/04/23 04:23:45;;;;;;;8.93;8.03;;;0.80;99.90;;;;;;5530382;26;20444;-45
2024/04/23 04:26:15;;;;;;;14.70;10.20;;;0.80;99.90;;;;;;5526955;25;20440;-45
2024/04/23 04:28:43;;;;;;;11.07;9.40;;;0.80;99.90;;;;;;5525005;25;20228;-45
2024/04/23 04:31:09;;;;;;;16.33;14.63;;;0.80;99.90;;;;;;5524845;25;20558;-45
2024/04/23 04:33:39;;;;;;;15.20;10.67;;;0.80;99.90;;;;;;5493220;26;20905;-44
2024/04/23 04:36:06;;;;;;;13.60;11.57;;;0.70;99.90;;;;;;5527279;25;20216;-46
2024/04/23 04:38:32;;;;;;;24.10;19.63;;;0.70;99.90;;;;;;5525906;25;20432;-45
2024/04/23 04:40:58;;;;;;;15.67;14.07;;;0.70;99.90;;;;;;5491920;26;20452;-45
2024/04/23 04:43:24;;;;;;;12.40;11.10;;;0.80;99.90;;;;;;5524817;25;20274;-45
2024/04/23 04:45:50;;;;;;;12.13;10.77;;;0.80;99.90;;;;;;5525147;25;20719;-45
2024/04/23 04:48:16;;;;;;;10.97;9.73;;;0.80;99.90;;;;;;5523385;25;20681;-45
2024/04/23 04:50:42;;;;;;;10.47;9.40;;;0.90;99.90;;;;;;5523597;25;20835;-45
2024/04/23 04:53:07;;;;;;;10.90;9.73;;;0.90;99.90;;;;;;5520894;25;20484;-45
2024/04/23 04:55:33;;;;;;;12.00;10.23;;;1.00;99.90;;;;;;5486263;25;20583;-44
2024/04/23 04:57:58;;;;;;;10.83;9.43;;;1.00;99.90;;;;;;5517897;25;20224;-45
2024/04/23 05:00:24;;;;;;;10.63;9.53;;;1.10;99.90;;;;;;5520770;25;20610;-45
2024/04/23 05:02:50;;;;;;;11.60;10.30;;;1.10;99.90;;;;;;5520372;25;20299;-45
2024/04/23 05:05:15;;;;;;;13.17;9.27;;;1.10;99.90;;;;;;5519246;25;20270;-44
2024/04/23 05:07:41;;;;;;;11.77;8.93;;;1.20;99.90;;;;;;5486122;26;20335;-45
2024/04/23 05:10:07;;;;;;;11.50;9.20;;;1.20;99.90;;;;;;5521406;25;20449;-45
2024/04/23 05:12:39;;;;;;;15.00;9.70;;;1.30;99.90;;;;;;5520696;25;20262;-45
2024/04/23 05:15:05;;;;;;;12.73;9.13;;;1.30;99.90;;;;;;5520699;25;20256;-45
2024/04/23 05:17:31;;;;;;;10.17;9.17;;;1.40;99.90;;;;;;5520340;25;20461;-45
2024/04/23 05:19:56;;;;;;;10.13;9.03;;;1.40;99.90;;;;;;5522619;25;20508;-47
2024/04/23 05:22:23;;;;;;;10.20;9.20;;;1.50;99.90;;;;;;5488348;26;20344;-45
2024/04/23 05:24:49;;;;;;;10.87;9.33;;;1.60;99.90;;;;;;5522049;25;20470;-45
2024/04/23 05:27:14;;;;;;;8.83;7.93;;;1.60;67.70;;;;;;5523007;25;20515;-45
2024/04/23 05:29:41;;;;;;;10.40;9.13;;;1.70;34.40;;;;;;5523182;25;20855;-45
2024/04/23 05:34:51;;;;;;;9.93;8.10;;;2.00;1.00;;;;;;5526810;25;20972;-45
2024/04/23 05:37:16;;;;;;;11.10;9.10;;;2.00;1.00;;;;;;5516731;25;20759;-45
2024/04/23 05:39:42;;;;;;;10.17;8.90;;;2.10;1.00;;;;;;5488510;25;20219;-45
2024/04/23 05:42:08;;;;;;;9.00;8.10;;;2.10;1.00;;;;;;5524028;25;20336;-45
2024/04/23 05:44:33;;;;;;;9.60;8.60;;;2.20;1.00;;;;;;5522545;25;20292;-45
2024/04/23 05:46:59;;;;;;;9.13;8.17;;;2.20;1.00;;;;;;5520682;25;20215;-45
2024/04/23 05:50:02;;;;;;;10.13;8.50;;;2.30;1.00;;;;;;5522920;25;20235;-45
2024/04/23 05:53:05;;;;;;;9.40;8.50;;;2.40;1.00;;;;;;5521271;25;20324;-45
2024/04/23 05:55:38;;;;;;;9.77;8.77;;;2.60;99.90;;;;;;5519448;26;20456;-45
2024/04/23 05:58:05;;;;;;;8.97;7.57;;;2.70;99.90;;;;;;5490391;25;20807;-50
2024/04/23 06:00:31;;;;;;;9.03;7.40;;;2.80;1.00;;;;;;5522227;25;20601;-42
2024/04/23 06:02:57;;;;;;;10.43;9.00;;;5.50;1.00;;;;;;5489063;25;20742;-47
2024/04/23 06:05:23;;;;;;;7.23;6.57;;;7.50;1.00;;;;;;5525582;25;20612;-42
2024/04/23 06:07:50;;;;;;;6.07;5.40;;;8.40;1.00;;;;;;5524683;25;20463;-42
2024/04/23 06:10:16;;;;;;;7.87;6.67;;;9.30;9.80;;;;;;5492705;25;20468;-43
2024/04/23 06:12:42;;;;;;;9.10;7.73;;;10.10;99.90;;;;;;5494697;25;20448;-37
2024/04/23 06:15:07;;;;;;;8.73;7.83;;;10.00;1.00;;;;;;5461769;26;20262;-37
2024/04/23 06:17:36;;;;;;;7.53;6.83;;;9.00;99.90;;;;;;5526996;26;20227;-36
2024/04/23 06:20:05;;;;;;;7.30;6.60;;;8.20;99.90;;;;;;5526666;25;20411;-36
2024/04/23 06:22:31;;;;;;;8.73;7.83;;;7.50;99.90;;;;;;5523518;25;20577;-37
2024/04/23 06:24:57;;;;;;;8.50;7.60;;;6.80;99.90;;;;;;5523314;25;20551;-37
2024/04/23 06:27:26;;;;;;;8.33;7.50;;;6.50;99.90;;;;;;5526069;25;20905;-37
2024/04/23 06:29:55;;;;;;;8.27;7.47;;;6.20;1.00;;;;;;5520360;25;20777;-36
2024/04/23 06:32:22;;;;;;;8.10;7.30;;;6.00;1.00;;;;;;5485925;25;20764;-35
2024/04/23 06:34:49;;;;;;;7.90;7.10;;;5.90;1.00;;;;;;5523065;25;20445;-36
2024/04/23 06:37:15;;;;;;;9.10;8.20;;;5.80;1.00;;;;;;5528819;25;20512;-37
2024/04/23 06:39:42;;;;;;;8.50;7.60;;;5.90;48.50;;;;;;5527339;25;20982;-37
2024/04/23 06:42:08;;;;;;;9.70;7.90;;;6.00;1.00;;;;;;5562036;25;20497;-38
2024/04/23 06:44:34;;;;;;;8.33;7.57;;;6.00;1.00;;;;;;5560747;25;20431;-36
2024/04/23 06:46:59;;;;;;;7.60;6.90;;;6.10;1.00;;;;;;5561608;25;20218;-36
2024/04/23 06:49:25;;;;;;;10.80;8.43;;;6.10;1.00;;;;;;5560567;25;20218;-37
2024/04/23 06:51:51;;;;;;;7.80;7.10;;;6.30;1.00;;;;;;5561165;25;20628;-37
2024/04/23 06:54:17;;;;;;;9.90;7.50;;;6.50;1.00;;;;;;5561741;25;20231;-37
2024/04/23 06:56:43;;;;;;;9.27;7.60;;;6.60;1.00;;;;;;5562797;25;20431;-37
2024/04/23 06:59:10;;;;;;;7.60;6.90;;;6.70;99.90;;;;;;5562321;25;20431;-36
2024/04/23 07:01:35;;;;;;;8.70;7.90;;;6.80;99.90;;;;;;5562449;25;20514;-37
2024/04/23 07:04:01;;;;;;;16.83;15.23;;;7.00;99.90;;;;;;5564788;25;20869;-36
2024/04/23 07:06:27;;;;;;;29.10;26.37;;;7.10;99.90;;;;;;5533498;25;20290;-38
2024/04/23 07:08:53;;;;;;;17.03;15.33;;;7.20;99.90;;;;;;5559470;25;20443;-46
2024/04/23 07:11:19;;;;;;;9.50;8.70;;;7.30;99.90;;;;;;5560282;25;20261;-46
2024/04/23 07:13:46;;;;;;;9.57;8.67;;;7.50;99.90;;;;;;5559526;25;20750;-46
2024/04/23 07:16:12;;;;;;;10.43;9.43;;;7.70;99.90;;;;;;5560360;25;20510;-46
2024/04/23 07:18:38;;;;;;;8.77;7.97;;;7.90;99.90;;;;;;5560679;25;20471;-46
2024/04/23 07:21:04;;;;;;;7.83;7.13;;;8.10;62.70;;;;;;5562625;25;20520;-46
2024/04/23 07:23:29;;;;;;;8.00;7.30;;;8.20;67.20;;;;;;5562132;25;20439;-46
2024/04/23 07:25:55;;;;;;;8.20;7.50;;;8.30;35.70;;;;;;5561577;25;20277;-46
2024/04/23 07:28:20;;;;;;;10.80;9.70;;;8.30;27.00;;;;;;5563626;25;20230;-46
2024/04/23 07:30:48;;;;;;;9.13;8.23;;;8.60;49.10;;;;;;5562735;25;20633;-46
2024/04/23 07:33:16;;;;;;;9.87;7.90;;;8.80;3.40;;;;;;5562124;25;20222;-46
2024/04/23 07:35:43;;;;;;;8.00;7.30;;;8.90;14.50;;;;;;5563385;25;20478;-47
2024/04/23 07:38:12;;;;;;;8.73;7.90;;;9.20;1.00;;;;;;5563439;25;20841;-46
2024/04/23 07:40:38;;;;;;;8.93;8.03;;;9.20;1.00;;;;;;5565283;25;20830;-49
2024/04/23 07:43:04;;;;;;;9.30;8.37;;;9.60;1.00;;;;;;5565669;25;20944;-44
2024/04/23 07:45:32;;;;;;;8.60;7.80;;;9.80;1.00;;;;;;5564597;25;20455;-44
2024/04/23 07:47:58;;;;;;;7.90;7.10;;;10.10;1.00;;;;;;5561821;25;20688;-44
2024/04/23 07:50:24;;;;;;;8.07;7.33;;;10.40;1.00;;;;;;5561423;25;20503;-44
2024/04/23 07:52:50;;;;;;;8.33;7.53;;;10.60;1.00;;;;;;5562035;25;20444;-44
2024/04/23 07:55:15;;;;;;;9.00;8.10;;;10.80;1.00;;;;;;5559982;25;20230;-45
2024/04/23 07:57:44;;;;;;;7.37;6.67;;;11.00;1.00;;;;;;5561865;25;20331;-44
2024/04/23 08:00:11;;;;;;;9.80;8.87;;;11.10;1.00;;;;;;5560841;25;20299;-44
2024/04/23 08:02:38;;;;;;;7.90;7.10;;;11.00;1.00;;;;;;5560821;25;20435;-44
2024/04/23 08:05:04;;;;;;;8.93;8.03;;;11.10;1.00;;;;;;5561948;25;20443;-44
2024/04/23 08:07:30;;;;;;;8.87;8.07;;;11.20;1.00;;;;;;5563408;25;20507;-44
2024/04/23 08:09:56;;;;;;;7.80;7.10;;;11.40;1.00;;;;;;5562730;25;20451;-45
2024/04/23 08:12:21;;;;;;;9.13;8.30;;;11.70;1.00;;;;;;5564332;25;20226;-45
2024/04/23 08:14:47;;;;;;;8.20;7.40;;;12.00;1.00;;;;;;5563581;25;20488;-44
2024/04/23 08:17:13;;;;;;;10.10;9.17;;;12.40;1.00;;;;;;5564009;25;20226;-45
2024/04/23 08:19:38;;;;;;;9.37;8.57;;;13.00;1.00;;;;;;5529021;25;20238;-44
2024/04/23 08:22:04;;;;;;;11.23;9.83;;;13.60;1.00;;;;;;5561494;25;20302;-44
2024/04/23 08:24:29;;;;;;;9.93;9.03;;;14.10;1.00;;;;;;5563618;25;20235;-45
2024/04/23 08:26:55;;;;;;;8.67;7.87;;;14.60;1.00;;;;;;5529274;25;20257;-45
2024/04/23 08:29:21;;;;;;;9.13;8.30;;;14.80;1.00;;;;;;5562291;25;20207;-44
2024/04/23 08:31:47;;;;;;;9.57;8.63;;;15.30;1.00;;;;;;5563471;25;20226;-44
2024/04/23 08:34:13;;;;;;;8.97;8.07;;;16.00;1.00;;;;;;5565228;25;20455;-45
2024/04/23 08:36:38;;;;;;;8.80;8.00;;;16.50;1.00;;;;;;5565540;25;20235;-52
2024/04/23 08:39:04;;;;;;;10.77;9.27;;;16.70;1.00;;;;;;5563958;25;20257;-44
2024/04/23 08:41:37;;;;;;;9.83;9.00;;;16.90;1.00;;;;;;5566363;25;20380;-45
2024/04/23 08:44:10;;;;;;;9.13;8.33;;;17.00;1.00;;;;;;5532019;25;20274;-45
2024/04/23 08:46:36;;;;;;;8.50;7.70;;;17.20;1.00;;;;;;5588877;25;20519;-44
2024/04/23 08:49:06;;;;;;;9.10;8.37;;;16.80;1.00;;;;;;5566525;25;20927;-44
2024/04/23 08:51:32;;;;;;;8.33;7.57;;;16.90;1.00;;;;;;5598128;25;20449;-45
2024/04/23 08:53:59;;;;;;;7.67;6.97;;;16.80;1.00;;;;;;5600744;25;20562;-44
2024/04/23 08:56:34;;;;;;;8.40;7.60;;;17.00;1.00;;;;;;5601165;25;20426;-44
2024/04/23 08:59:05;;;;;;;8.77;7.87;;;17.60;1.00;;;;;;5600825;25;20791;-44
2024/04/23 09:01:38;;;;;;;8.40;7.70;;;17.80;1.00;;;;;;5600146;25;20438;-44
2024/04/23 09:04:03;;;;;;;8.73;7.93;;;17.40;1.00;;;;;;5567984;25;20537;-44
2024/04/23 09:06:29;;;;;;;7.63;7.03;;;17.40;1.00;;;;;;5600275;25;20441;-44
2024/04/23 09:08:57;;;;;;;9.40;8.60;;;17.60;1.00;;;;;;5564484;25;20209;-44
2024/04/23 09:11:26;;;;;;;12.90;11.90;;;17.60;1.00;;;;;;5598448;25;20679;-44
2024/04/23 09:13:52;;;;;;;8.00;7.30;;;17.30;1.00;;;;;;5559875;25;20902;-44
2024/04/23 09:16:17;;;;;;;7.60;6.90;;;16.80;1.00;;;;;;5594794;25;20876;-45
2024/04/23 09:18:43;;;;;;;8.87;8.10;;;16.50;1.00;;;;;;5594255;25;20271;-44
2024/04/23 09:21:09;;;;;;;10.87;9.50;;;16.70;1.00;;;;;;5562284;25;20732;-44
2024/04/23 09:23:34;;;;;;;8.60;7.80;;;17.00;1.00;;;;;;5563908;25;20210;-44
2024/04/23 09:26:01;;;;;;;13.90;9.37;;;16.90;1.00;;;;;;5599438;25;20222;-44
2024/04/23 09:28:31;;;;;;;8.10;7.40;;;16.70;1.00;;;;;;5597149;25;20655;-44
2024/04/23 09:30:57;;;;;;;8.07;7.37;;;16.70;1.00;;;;;;5596664;25;20566;-44
2024/04/23 09:33:24;;;;;;;7.70;7.00;;;16.80;1.00;;;;;;5602458;25;20449;-44
2024/04/23 09:36:00;;;;;;;8.70;6.90;;;16.50;1.00;;;;;;5601617;25;20441;-44
2024/04/23 09:38:26;;;;;;;9.90;7.30;;;16.50;1.00;;;;;;5601640;25;20559;-44
2024/04/23 09:40:52;;;;;;;9.07;8.33;;;16.40;1.00;;;;;;5601136;25;20461;-45
2024/04/23 09:43:22;;;;;;;14.40;13.10;;;15.90;1.00;;;;;;5602699;25;20415;-44
2024/04/23 09:45:48;;;;;;;14.10;12.90;;;15.40;1.00;;;;;;5602167;25;20260;-44
2024/04/23 09:48:14;;;;;;;17.30;15.97;;;15.00;1.00;;;;;;5603686;25;20871;-44
2024/04/23 09:50:40;;;;;;;29.70;27.27;;;14.70;1.00;;;;;;5570500;25;20222;-44
2024/04/23 09:53:09;;;;;;;9.73;8.90;;;15.00;1.00;;;;;;5600964;25;20505;-44
2024/04/23 09:55:36;;;;;;;8.33;7.63;;;15.00;1.00;;;;;;5601140;25;20217;-45
2024/04/23 09:58:02;;;;;;;7.50;6.90;;;15.90;1.00;;;;;;5600159;25;20768;-45
2024/04/23 10:00:29;;;;;;;8.87;7.93;;;17.30;1.00;;;;;;5600256;25;20900;-44
2024/04/23 10:03:01;;;;;;;8.83;7.40;;;19.10;1.00;;;;;;5600930;25;20696;-44
2024/04/23 10:05:27;;;;;;;10.23;9.43;;;20.10;1.00;;;;;;5568508;25;20445;-45
2024/04/23 10:08:24;;;;;;;8.33;7.27;;;19.50;1.00;;;;;;5570004;25;20955;-44
2024/04/23 10:10:52;;;;;;;9.90;7.30;;;18.70;1.00;;;;;;5433360;25;20592;-44
2024/04/23 10:13:31;;;;;;;7.00;6.30;;;18.60;1.00;;;;;;5565643;25;20533;-45
2024/04/23 10:16:15;;;;;;;6.80;6.30;;;19.00;1.00;;;;;;5567151;25;20453;-45
2024/04/23 10:18:46;;;;;;;8.90;7.97;;;20.40;1.00;;;;;;5566453;25;20516;-45
2024/04/23 10:21:14;;;;;;;11.07;10.17;;;20.90;1.00;;;;;;5566693;25;20442;-45
2024/04/23 10:23:40;;;;;;;13.73;12.63;;;20.30;1.00;;;;;;5566089;25;20442;-44
2024/04/23 10:26:06;;;;;;;8.20;7.50;;;19.80;1.00;;;;;;5601560;25;20441;-45
2024/04/23 10:28:32;;;;;;;9.57;8.67;;;18.80;1.00;;;;;;5568776;25;20453;-46
2024/04/23 10:30:58;;;;;;;12.20;11.20;;;18.90;1.00;;;;;;5567733;25;20241;-46
2024/04/23 10:33:30;;;;;;;13.63;12.23;;;20.60;1.00;;;;;;5569395;25;20501;-46
2024/04/23 10:36:00;;;;;;;7.90;7.30;;;21.70;1.00;;;;;;5567905;25;20434;-46
2024/04/23 10:38:28;;;;;;;8.40;7.80;;;22.30;1.00;;;;;;5600568;25;20944;-46
2024/04/23 10:40:54;;;;;;;12.00;11.10;;;21.70;1.00;;;;;;5554158;25;20519;-46
2024/04/23 10:43:20;;;;;;;7.73;7.13;;;21.00;1.00;;;;;;5528612;25;20944;-46
2024/04/23 10:45:46;;;;;;;11.77;10.77;;;21.20;1.00;;;;;;5561692;25;20222;-46
2024/04/23 10:48:11;;;;;;;13.90;12.60;;;21.00;1.00;;;;;;5563996;25;20491;-45
2024/04/23 10:50:37;;;;;;;7.83;7.13;;;21.50;1.00;;;;;;5563494;25;20206;-46
2024/04/23 10:53:04;;;;;;;12.53;11.43;;;21.50;1.00;;;;;;5562466;25;20277;-46
2024/04/23 10:55:30;;;;;;;10.83;9.10;;;20.60;1.00;;;;;;5531143;25;20489;-45
2024/04/23 10:57:56;;;;;;;7.50;6.80;;;20.50;1.00;;;;;;5547511;25;20464;-46
2024/04/23 11:00:40;;;;;;;8.00;7.20;;;21.50;1.00;;;;;;5525930;25;20327;-44
2024/04/23 11:03:25;;;;;;;7.90;7.30;;;21.30;1.00;;;;;;5525823;25;20440;-45
2024/04/23 11:05:50;;;;;;;8.20;7.50;;;20.10;1.00;;;;;;5461280;26;20452;-45
2024/04/23 11:08:23;;;;;;;7.13;6.53;;;18.60;1.00;;;;;;5461587;26;20497;-45
2024/04/23 11:10:51;;;;;;;6.73;6.23;;;17.50;1.00;;;;;;5522369;25;20235;-44
2024/04/23 11:13:29;;;;;;;7.40;6.80;;;16.70;1.00;;;;;;5523678;25;20839;-44
2024/04/23 11:15:58;;;;;;;7.23;6.63;;;16.10;1.00;;;;;;5525594;25;20452;-44
2024/04/23 11:18:25;;;;;;;9.77;8.70;;;15.50;1.00;;;;;;5525224;25;20469;-44
2024/04/23 11:20:58;;;;;;;7.30;6.70;;;15.10;1.00;;;;;;5525552;25;20697;-45
2024/04/23 11:23:24;;;;;;;7.97;7.17;;;15.30;1.00;;;;;;5491955;26;20499;-44
2024/04/23 11:25:50;;;;;;;6.37;5.70;;;16.20;1.00;;;;;;5461292;26;20557;-45
2024/04/23 11:28:16;;;;;;;7.43;6.20;;;17.20;1.00;;;;;;5522389;25;20456;-44
2024/04/23 11:30:41;;;;;;;6.63;6.10;;;17.30;1.00;;;;;;5523611;25;20464;-44
2024/04/23 11:33:09;;;;;;;6.33;5.83;;;17.30;1.00;;;;;;5523256;25;20460;-44
2024/04/23 11:35:38;;;;;;;7.33;6.63;;;17.20;1.00;;;;;;5493671;26;20216;-43
2024/04/23 11:38:04;;;;;;;6.13;5.53;;;17.20;1.00;;;;;;5526740;25;20473;-44
2024/04/23 11:40:29;;;;;;;6.40;5.80;;;17.20;1.00;;;;;;5523107;25;20528;-45
2024/04/23 11:42:56;;;;;;;6.20;5.70;;;17.10;1.00;;;;;;5524007;25;20232;-44
2024/04/23 11:45:21;;;;;;;6.40;5.80;;;16.90;1.00;;;;;;5524731;25;20228;-44
2024/04/23 11:47:51;;;;;;;6.70;6.20;;;16.80;1.00;;;;;;5525403;25;20497;-45
2024/04/23 11:50:16;;;;;;;7.10;6.50;;;16.40;1.00;;;;;;5524825;25;20250;-44
2024/04/23 11:52:42;;;;;;;6.90;5.97;;;16.70;1.00;;;;;;5491914;26;20461;-44
2024/04/23 11:55:10;;;;;;;6.00;5.50;;;16.90;1.00;;;;;;5524126;25;20335;-44
2024/04/23 11:57:39;;;;;;;5.33;4.93;;;16.70;1.00;;;;;;5522435;25;20239;-44
2024/04/23 12:00:05;;;;;;;5.43;4.93;;;16.60;1.00;;;;;;5489237;26;20456;-44
2024/04/23 12:02:32;;;;;;;5.83;5.27;;;16.60;1.00;;;;;;5525317;25;20444;-44
2024/04/23 12:04:58;;;;;;;5.40;4.90;;;16.70;1.00;;;;;;5526140;25;20628;-44
2024/04/23 12:07:24;;;;;;;5.83;5.33;;;17.60;1.00;;;;;;5494466;25;20560;-44
2024/04/23 12:09:50;;;;;;;6.63;6.13;;;18.90;1.00;;;;;;5496437;26;20460;-44
2024/04/23 12:12:18;;;;;;;5.60;5.10;;;19.30;1.00;;;;;;5526986;25;20231;-44
2024/04/23 12:14:44;;;;;;;5.37;4.90;;;19.20;1.00;;;;;;5525811;25;20668;-45
2024/04/23 12:17:10;;;;;;;6.20;5.60;;;19.80;1.00;;;;;;5463219;26;20506;-44
2024/04/23 12:19:38;;;;;;;6.60;6.00;;;21.60;1.00;;;;;;5528249;25;20898;-45
2024/04/23 12:22:17;;;;;;;6.70;6.13;;;23.10;1.00;;;;;;5530602;25;20224;-45
2024/04/23 12:24:43;;;;;;;6.13;5.63;;;23.10;1.00;;;;;;5529440;25;20706;-45
2024/04/23 12:27:09;;;;;;;6.73;6.13;;;22.10;1.00;;;;;;5530153;25;20496;-46
2024/04/23 12:29:35;;;;;;;6.77;6.20;;;21.20;1.00;;;;;;5495727;26;20693;-45
2024/04/23 12:32:01;;;;;;;6.50;5.90;;;20.00;1.00;;;;;;5526228;25;20762;-45
2024/04/23 12:34:27;;;;;;;7.03;6.40;;;19.00;1.00;;;;;;5527474;25;20224;-45
2024/04/23 12:36:54;;;;;;;6.20;5.60;;;18.40;1.00;;;;;;5526627;25;20965;-45
2024/04/23 12:39:19;;;;;;;6.23;5.70;;;17.90;1.00;;;;;;5529609;25;20456;-45
2024/04/23 12:41:45;;;;;;;6.40;5.90;;;17.80;1.00;;;;;;5526763;25;20479;-45
2024/04/23 12:44:19;;;;;;;7.03;6.43;;;19.30;1.00;;;;;;5526201;25;20246;-45
2024/04/23 12:46:44;;;;;;;6.70;6.10;;;19.60;1.00;;;;;;5525558;25;20516;-45
2024/04/23 12:49:12;;;;;;;5.87;5.43;;;19.20;1.00;;;;;;5525598;25;20449;-45
2024/04/23 12:51:38;;;;;;;6.70;6.03;;;18.50;1.00;;;;;;5527564;25;20323;-45
2024/04/23 12:54:08;;;;;;;8.47;7.33;;;17.90;1.00;;;;;;5526954;25;20445;-45
2024/04/23 12:56:34;;;;;;;6.33;5.83;;;17.90;1.00;;;;;;5492562;25;20215;-45
2024/04/23 12:59:00;;;;;;;7.00;5.60;;;17.70;1.00;;;;;;5524928;25;20444;-45
2024/04/23 13:01:26;;;;;;;5.70;5.20;;;17.50;1.00;;;;;;5525566;25;21241;-45